sensor_id;sensor_type;location;lat;lon;timestamp;P1;durP1;ratioP1;P2;durP2;ratioP2
1446;SDS011;717;51.522;7.266;2022-07-29T00:01:26;5.32;;;1.20;;
1446;SDS011;717;51.522;7.266;2022-07-29T00:03:52;4.68;;;1.02;;
1446;SDS011;717;51.522;7.266;2022-07-29T00:06:19;2.78;;;0.95;;
1446;SDS011;717;51.522;7.266;2022-07-29T00:08:46;3.67;;;1.02;;
1446;SDS011;717;51.522;7.266;2022-07-29T00:11:13;2.08;;;0.90;;
1446;SDS011;717;51.522;7.266;2022-07-29T00:13:39;2.55;;;0.70;;
1446;SDS011;717;51.522;7.266;2022-07-29T00:16:08;3.67;;;1.00;;
1446;SDS011;717;51.522;7.266;2022-07-29T00:18:35;2.65;;;0.85;;
1446;SDS011;717;51.522;7.266;2022-07-29T00:21:02;4.93;;;0.90;;
1446;SDS011;717;51.522;7.266;2022-07-29T00:23:29;2.92;;;1.05;;
1446;SDS011;717;51.522;7.266;2022-07-29T00:25:55;2.08;;;0.70;;
1446;SDS011;717;51.522;7.266;2022-07-29T00:28:22;3.58;;;1.20;;
1446;SDS011;717;51.522;7.266;2022-07-29T00:30:49;2.15;;;1.15;;
1446;SDS011;717;51.522;7.266;2022-07-29T00:33:17;5.93;;;1.17;;
1446;SDS011;717;51.522;7.266;2022-07-29T00:35:44;3.67;;;1.10;;
1446;SDS011;717;51.522;7.266;2022-07-29T00:38:10;3.78;;;0.90;;
1446;SDS011;717;51.522;7.266;2022-07-29T00:40:37;2.30;;;1.00;;
1446;SDS011;717;51.522;7.266;2022-07-29T00:43:04;2.22;;;0.90;;
1446;SDS011;717;51.522;7.266;2022-07-29T00:45:31;3.47;;;0.80;;
1446;SDS011;717;51.522;7.266;2022-07-29T00:47:58;5.82;;;1.25;;
1446;SDS011;717;51.522;7.266;2022-07-29T00:50:26;1.50;;;0.95;;
1446;SDS011;717;51.522;7.266;2022-07-29T00:52:53;2.63;;;1.00;;
1446;SDS011;717;51.522;7.266;2022-07-29T00:55:20;1.70;;;0.82;;
1446;SDS011;717;51.522;7.266;2022-07-29T00:57:47;2.75;;;0.90;;
1446;SDS011;717;51.522;7.266;2022-07-29T01:00:15;3.35;;;0.80;;
1446;SDS011;717;51.522;7.266;2022-07-29T01:02:44;2.63;;;0.98;;
1446;SDS011;717;51.522;7.266;2022-07-29T01:05:13;4.72;;;1.20;;
1446;SDS011;717;51.522;7.266;2022-07-29T01:07:42;2.85;;;1.20;;
1446;SDS011;717;51.522;7.266;2022-07-29T01:10:09;3.75;;;1.20;;
1446;SDS011;717;51.522;7.266;2022-07-29T01:12:38;4.15;;;1.40;;
1446;SDS011;717;51.522;7.266;2022-07-29T01:15:06;2.60;;;1.30;;
1446;SDS011;717;51.522;7.266;2022-07-29T01:17:36;5.18;;;1.20;;
1446;SDS011;717;51.522;7.266;2022-07-29T01:20:07;4.82;;;1.25;;
1446;SDS011;717;51.522;7.266;2022-07-29T01:25:45;3.63;;;1.10;;
1446;SDS011;717;51.522;7.266;2022-07-29T01:28:36;3.80;;;1.50;;
1446;SDS011;717;51.522;7.266;2022-07-29T01:31:09;5.72;;;1.27;;
1446;SDS011;717;51.522;7.266;2022-07-29T01:33:38;6.15;;;1.60;;
1446;SDS011;717;51.522;7.266;2022-07-29T01:36:16;3.53;;;1.50;;
1446;SDS011;717;51.522;7.266;2022-07-29T01:38:47;3.50;;;1.30;;
1446;SDS011;717;51.522;7.266;2022-07-29T01:41:20;4.80;;;1.20;;
1446;SDS011;717;51.522;7.266;2022-07-29T01:43:50;6.00;;;1.38;;
1446;SDS011;717;51.522;7.266;2022-07-29T01:46:21;3.58;;;1.23;;
1446;SDS011;717;51.522;7.266;2022-07-29T01:48:54;3.20;;;1.50;;
1446;SDS011;717;51.522;7.266;2022-07-29T01:51:25;3.72;;;1.30;;
1446;SDS011;717;51.522;7.266;2022-07-29T01:53:59;4.63;;;1.35;;
1446;SDS011;717;51.522;7.266;2022-07-29T01:56:30;2.97;;;1.27;;
1446;SDS011;717;51.522;7.266;2022-07-29T01:59:00;3.60;;;1.20;;
1446;SDS011;717;51.522;7.266;2022-07-29T02:01:29;3.17;;;1.23;;
1446;SDS011;717;51.522;7.266;2022-07-29T02:03:57;3.42;;;1.30;;
1446;SDS011;717;51.522;7.266;2022-07-29T02:06:28;1.63;;;0.90;;
1446;SDS011;717;51.522;7.266;2022-07-29T02:08:57;4.47;;;1.20;;
1446;SDS011;717;51.522;7.266;2022-07-29T02:11:25;3.13;;;1.15;;
1446;SDS011;717;51.522;7.266;2022-07-29T02:13:53;4.20;;;1.40;;
1446;SDS011;717;51.522;7.266;2022-07-29T02:16:23;4.32;;;1.27;;
1446;SDS011;717;51.522;7.266;2022-07-29T02:18:55;3.08;;;1.10;;
1446;SDS011;717;51.522;7.266;2022-07-29T02:21:24;2.05;;;1.15;;
1446;SDS011;717;51.522;7.266;2022-07-29T02:23:52;5.75;;;1.23;;
1446;SDS011;717;51.522;7.266;2022-07-29T02:26:20;2.67;;;0.95;;
1446;SDS011;717;51.522;7.266;2022-07-29T02:28:49;4.97;;;1.10;;
1446;SDS011;717;51.522;7.266;2022-07-29T02:31:18;3.42;;;0.90;;
1446;SDS011;717;51.522;7.266;2022-07-29T02:33:49;3.05;;;1.17;;
1446;SDS011;717;51.522;7.266;2022-07-29T02:36:17;3.25;;;1.00;;
1446;SDS011;717;51.522;7.266;2022-07-29T02:38:50;2.72;;;0.90;;
1446;SDS011;717;51.522;7.266;2022-07-29T02:41:18;3.65;;;1.02;;
1446;SDS011;717;51.522;7.266;2022-07-29T02:43:50;3.65;;;1.10;;
1446;SDS011;717;51.522;7.266;2022-07-29T02:46:27;1.52;;;0.90;;
1446;SDS011;717;51.522;7.266;2022-07-29T02:49:00;1.95;;;1.13;;
1446;SDS011;717;51.522;7.266;2022-07-29T02:51:34;2.83;;;1.05;;
1446;SDS011;717;51.522;7.266;2022-07-29T02:54:07;3.30;;;1.42;;
1446;SDS011;717;51.522;7.266;2022-07-29T02:56:36;5.75;;;1.20;;
1446;SDS011;717;51.522;7.266;2022-07-29T02:59:07;1.63;;;0.80;;
1446;SDS011;717;51.522;7.266;2022-07-29T03:01:38;1.92;;;0.98;;
1446;SDS011;717;51.522;7.266;2022-07-29T03:04:09;2.78;;;1.05;;
1446;SDS011;717;51.522;7.266;2022-07-29T03:06:37;4.25;;;1.00;;
1446;SDS011;717;51.522;7.266;2022-07-29T03:09:07;3.97;;;1.23;;
1446;SDS011;717;51.522;7.266;2022-07-29T03:11:34;3.72;;;1.13;;
1446;SDS011;717;51.522;7.266;2022-07-29T03:14:02;1.70;;;1.10;;
1446;SDS011;717;51.522;7.266;2022-07-29T03:16:30;2.13;;;1.08;;
1446;SDS011;717;51.522;7.266;2022-07-29T03:18:57;3.20;;;1.00;;
1446;SDS011;717;51.522;7.266;2022-07-29T03:21:26;3.08;;;1.23;;
1446;SDS011;717;51.522;7.266;2022-07-29T03:23:53;1.92;;;1.15;;
1446;SDS011;717;51.522;7.266;2022-07-29T03:26:20;3.55;;;0.90;;
1446;SDS011;717;51.522;7.266;2022-07-29T03:28:47;5.97;;;1.35;;
1446;SDS011;717;51.522;7.266;2022-07-29T03:31:14;4.35;;;1.10;;
1446;SDS011;717;51.522;7.266;2022-07-29T03:33:40;3.58;;;1.05;;
1446;SDS011;717;51.522;7.266;2022-07-29T03:36:07;3.40;;;1.08;;
1446;SDS011;717;51.522;7.266;2022-07-29T03:38:36;2.70;;;1.23;;
1446;SDS011;717;51.522;7.266;2022-07-29T03:41:05;1.67;;;0.82;;
1446;SDS011;717;51.522;7.266;2022-07-29T03:43:35;2.80;;;0.90;;
1446;SDS011;717;51.522;7.266;2022-07-29T03:46:04;2.65;;;0.90;;
1446;SDS011;717;51.522;7.266;2022-07-29T03:48:34;2.92;;;0.95;;
1446;SDS011;717;51.522;7.266;2022-07-29T03:51:05;3.25;;;1.05;;
1446;SDS011;717;51.522;7.266;2022-07-29T03:53:31;5.03;;;1.17;;
1446;SDS011;717;51.522;7.266;2022-07-29T03:56:01;4.22;;;1.02;;
1446;SDS011;717;51.522;7.266;2022-07-29T03:58:30;5.55;;;1.13;;
1446;SDS011;717;51.522;7.266;2022-07-29T04:00:58;5.15;;;1.05;;
1446;SDS011;717;51.522;7.266;2022-07-29T04:03:25;2.78;;;1.08;;
1446;SDS011;717;51.522;7.266;2022-07-29T04:05:59;2.95;;;1.00;;
1446;SDS011;717;51.522;7.266;2022-07-29T04:08:27;3.47;;;0.98;;
1446;SDS011;717;51.522;7.266;2022-07-29T04:10:54;3.85;;;1.10;;
1446;SDS011;717;51.522;7.266;2022-07-29T04:13:22;3.15;;;0.98;;
1446;SDS011;717;51.522;7.266;2022-07-29T04:15:49;2.38;;;0.90;;
1446;SDS011;717;51.522;7.266;2022-07-29T04:18:16;4.28;;;1.15;;
1446;SDS011;717;51.522;7.266;2022-07-29T04:20:43;3.13;;;0.80;;
1446;SDS011;717;51.522;7.266;2022-07-29T04:23:09;3.60;;;1.05;;
1446;SDS011;717;51.522;7.266;2022-07-29T04:25:37;3.03;;;0.90;;
1446;SDS011;717;51.522;7.266;2022-07-29T04:28:04;2.97;;;1.08;;
1446;SDS011;717;51.522;7.266;2022-07-29T04:30:33;2.35;;;1.02;;
1446;SDS011;717;51.522;7.266;2022-07-29T04:33:01;2.65;;;1.05;;
1446;SDS011;717;51.522;7.266;2022-07-29T04:35:29;2.17;;;0.98;;
1446;SDS011;717;51.522;7.266;2022-07-29T04:37:59;3.38;;;0.98;;
1446;SDS011;717;51.522;7.266;2022-07-29T04:40:27;1.92;;;0.90;;
1446;SDS011;717;51.522;7.266;2022-07-29T04:42:54;2.10;;;0.82;;
1446;SDS011;717;51.522;7.266;2022-07-29T04:45:20;2.55;;;1.05;;
1446;SDS011;717;51.522;7.266;2022-07-29T04:47:49;3.28;;;0.88;;
1446;SDS011;717;51.522;7.266;2022-07-29T04:50:15;2.67;;;0.95;;
1446;SDS011;717;51.522;7.266;2022-07-29T04:52:42;4.40;;;1.10;;
1446;SDS011;717;51.522;7.266;2022-07-29T04:55:09;1.88;;;0.98;;
1446;SDS011;717;51.522;7.266;2022-07-29T04:57:36;3.58;;;1.35;;
1446;SDS011;717;51.522;7.266;2022-07-29T05:00:03;4.97;;;1.58;;
1446;SDS011;717;51.522;7.266;2022-07-29T05:02:31;3.08;;;1.25;;
1446;SDS011;717;51.522;7.266;2022-07-29T05:04:59;3.72;;;1.30;;
1446;SDS011;717;51.522;7.266;2022-07-29T05:07:26;3.88;;;1.20;;
1446;SDS011;717;51.522;7.266;2022-07-29T05:09:53;4.70;;;1.52;;
1446;SDS011;717;51.522;7.266;2022-07-29T05:12:21;4.93;;;1.27;;
1446;SDS011;717;51.522;7.266;2022-07-29T05:14:48;3.35;;;1.48;;
1446;SDS011;717;51.522;7.266;2022-07-29T05:17:15;2.70;;;1.20;;
1446;SDS011;717;51.522;7.266;2022-07-29T05:19:43;3.28;;;1.25;;
1446;SDS011;717;51.522;7.266;2022-07-29T05:22:11;4.30;;;1.35;;
1446;SDS011;717;51.522;7.266;2022-07-29T05:24:38;3.28;;;1.15;;
1446;SDS011;717;51.522;7.266;2022-07-29T05:27:05;3.65;;;1.40;;
1446;SDS011;717;51.522;7.266;2022-07-29T05:29:32;9.98;;;1.70;;
1446;SDS011;717;51.522;7.266;2022-07-29T05:31:58;4.22;;;1.25;;
1446;SDS011;717;51.522;7.266;2022-07-29T05:34:25;3.75;;;1.20;;
1446;SDS011;717;51.522;7.266;2022-07-29T05:36:52;3.50;;;1.30;;
1446;SDS011;717;51.522;7.266;2022-07-29T05:39:21;4.63;;;1.30;;
1446;SDS011;717;51.522;7.266;2022-07-29T05:41:49;2.50;;;1.20;;
1446;SDS011;717;51.522;7.266;2022-07-29T05:44:16;1.90;;;1.15;;
1446;SDS011;717;51.522;7.266;2022-07-29T05:46:42;4.82;;;1.20;;
1446;SDS011;717;51.522;7.266;2022-07-29T05:49:09;4.82;;;1.33;;
1446;SDS011;717;51.522;7.266;2022-07-29T05:51:36;5.15;;;1.42;;
1446;SDS011;717;51.522;7.266;2022-07-29T05:54:03;3.95;;;1.30;;
1446;SDS011;717;51.522;7.266;2022-07-29T05:56:31;1.95;;;1.15;;
1446;SDS011;717;51.522;7.266;2022-07-29T05:58:58;2.83;;;1.38;;
1446;SDS011;717;51.522;7.266;2022-07-29T06:01:25;2.97;;;1.23;;
1446;SDS011;717;51.522;7.266;2022-07-29T06:03:52;5.05;;;1.50;;
1446;SDS011;717;51.522;7.266;2022-07-29T06:06:18;1.67;;;1.10;;
1446;SDS011;717;51.522;7.266;2022-07-29T06:08:45;4.28;;;1.30;;
1446;SDS011;717;51.522;7.266;2022-07-29T06:11:12;2.35;;;1.25;;
1446;SDS011;717;51.522;7.266;2022-07-29T06:13:40;3.92;;;1.48;;
1446;SDS011;717;51.522;7.266;2022-07-29T06:16:07;3.58;;;1.52;;
1446;SDS011;717;51.522;7.266;2022-07-29T06:18:34;3.67;;;1.25;;
1446;SDS011;717;51.522;7.266;2022-07-29T06:21:00;1.90;;;1.30;;
1446;SDS011;717;51.522;7.266;2022-07-29T06:23:27;3.28;;;1.42;;
1446;SDS011;717;51.522;7.266;2022-07-29T06:25:54;2.20;;;1.52;;
1446;SDS011;717;51.522;7.266;2022-07-29T06:28:21;3.65;;;1.73;;
1446;SDS011;717;51.522;7.266;2022-07-29T06:30:49;3.00;;;1.77;;
1446;SDS011;717;51.522;7.266;2022-07-29T06:33:17;5.28;;;1.80;;
1446;SDS011;717;51.522;7.266;2022-07-29T06:35:44;3.08;;;1.42;;
1446;SDS011;717;51.522;7.266;2022-07-29T06:38:12;2.50;;;1.52;;
1446;SDS011;717;51.522;7.266;2022-07-29T06:40:40;4.28;;;1.65;;
1446;SDS011;717;51.522;7.266;2022-07-29T06:43:26;1.85;;;1.42;;
1446;SDS011;717;51.522;7.266;2022-07-29T06:45:55;3.17;;;1.70;;
1446;SDS011;717;51.522;7.266;2022-07-29T06:48:22;4.38;;;1.63;;
1446;SDS011;717;51.522;7.266;2022-07-29T06:50:49;3.15;;;1.65;;
1446;SDS011;717;51.522;7.266;2022-07-29T06:53:15;2.47;;;1.58;;
1446;SDS011;717;51.522;7.266;2022-07-29T06:55:42;5.38;;;1.38;;
1446;SDS011;717;51.522;7.266;2022-07-29T06:58:09;3.38;;;1.60;;
1446;SDS011;717;51.522;7.266;2022-07-29T07:00:36;3.50;;;1.40;;
1446;SDS011;717;51.522;7.266;2022-07-29T07:03:05;4.25;;;1.70;;
1446;SDS011;717;51.522;7.266;2022-07-29T07:05:32;5.88;;;1.98;;
1446;SDS011;717;51.522;7.266;2022-07-29T07:07:58;4.72;;;1.70;;
1446;SDS011;717;51.522;7.266;2022-07-29T07:10:25;2.78;;;1.40;;
1446;SDS011;717;51.522;7.266;2022-07-29T07:12:52;3.80;;;1.88;;
1446;SDS011;717;51.522;7.266;2022-07-29T07:15:19;4.55;;;1.38;;
1446;SDS011;717;51.522;7.266;2022-07-29T07:17:47;1.42;;;1.10;;
1446;SDS011;717;51.522;7.266;2022-07-29T07:20:15;3.17;;;1.45;;
1446;SDS011;717;51.522;7.266;2022-07-29T07:22:42;4.15;;;1.58;;
1446;SDS011;717;51.522;7.266;2022-07-29T07:25:10;3.25;;;1.50;;
1446;SDS011;717;51.522;7.266;2022-07-29T07:27:38;7.13;;;1.73;;
1446;SDS011;717;51.522;7.266;2022-07-29T07:30:06;3.08;;;1.38;;
1446;SDS011;717;51.522;7.266;2022-07-29T07:32:33;3.85;;;1.80;;
1446;SDS011;717;51.522;7.266;2022-07-29T07:35:01;5.03;;;1.70;;
1446;SDS011;717;51.522;7.266;2022-07-29T07:37:30;3.03;;;1.30;;
1446;SDS011;717;51.522;7.266;2022-07-29T07:39:57;2.20;;;1.30;;
1446;SDS011;717;51.522;7.266;2022-07-29T07:42:24;4.30;;;1.90;;
1446;SDS011;717;51.522;7.266;2022-07-29T07:44:51;2.53;;;1.58;;
1446;SDS011;717;51.522;7.266;2022-07-29T07:47:18;3.45;;;1.40;;
1446;SDS011;717;51.522;7.266;2022-07-29T07:49:45;5.45;;;1.88;;
1446;SDS011;717;51.522;7.266;2022-07-29T07:52:13;1.98;;;1.48;;
1446;SDS011;717;51.522;7.266;2022-07-29T07:54:41;4.65;;;1.52;;
1446;SDS011;717;51.522;7.266;2022-07-29T07:57:08;5.22;;;1.52;;
1446;SDS011;717;51.522;7.266;2022-07-29T07:59:36;3.55;;;1.70;;
1446;SDS011;717;51.522;7.266;2022-07-29T08:02:02;4.13;;;1.85;;
1446;SDS011;717;51.522;7.266;2022-07-29T08:04:29;5.00;;;1.70;;
1446;SDS011;717;51.522;7.266;2022-07-29T08:06:57;3.95;;;1.67;;
1446;SDS011;717;51.522;7.266;2022-07-29T08:09:25;5.70;;;1.50;;
1446;SDS011;717;51.522;7.266;2022-07-29T08:11:54;5.32;;;1.80;;
1446;SDS011;717;51.522;7.266;2022-07-29T08:14:21;3.63;;;1.83;;
1446;SDS011;717;51.522;7.266;2022-07-29T08:16:48;4.57;;;1.80;;
1446;SDS011;717;51.522;7.266;2022-07-29T08:19:14;4.88;;;1.90;;
1446;SDS011;717;51.522;7.266;2022-07-29T08:21:41;4.45;;;1.73;;
1446;SDS011;717;51.522;7.266;2022-07-29T08:24:08;3.05;;;2.03;;
1446;SDS011;717;51.522;7.266;2022-07-29T08:26:54;5.82;;;2.28;;
1446;SDS011;717;51.522;7.266;2022-07-29T08:29:21;4.03;;;1.98;;
1446;SDS011;717;51.522;7.266;2022-07-29T08:31:48;3.70;;;1.77;;
1446;SDS011;717;51.522;7.266;2022-07-29T08:34:14;3.65;;;1.67;;
1446;SDS011;717;51.522;7.266;2022-07-29T08:36:41;4.18;;;2.08;;
1446;SDS011;717;51.522;7.266;2022-07-29T08:39:08;2.45;;;1.45;;
1446;SDS011;717;51.522;7.266;2022-07-29T08:41:35;4.93;;;1.77;;
1446;SDS011;717;51.522;7.266;2022-07-29T08:44:04;3.25;;;1.67;;
1446;SDS011;717;51.522;7.266;2022-07-29T08:46:31;2.72;;;1.73;;
1446;SDS011;717;51.522;7.266;2022-07-29T08:48:57;5.13;;;1.65;;
1446;SDS011;717;51.522;7.266;2022-07-29T08:51:24;4.03;;;1.92;;
1446;SDS011;717;51.522;7.266;2022-07-29T08:53:52;3.88;;;1.98;;
1446;SDS011;717;51.522;7.266;2022-07-29T08:56:20;3.17;;;2.05;;
1446;SDS011;717;51.522;7.266;2022-07-29T08:58:48;3.80;;;1.85;;
1446;SDS011;717;51.522;7.266;2022-07-29T09:01:17;3.47;;;2.05;;
1446;SDS011;717;51.522;7.266;2022-07-29T09:03:48;3.50;;;1.83;;
1446;SDS011;717;51.522;7.266;2022-07-29T09:06:17;5.72;;;1.95;;
1446;SDS011;717;51.522;7.266;2022-07-29T09:08:44;4.07;;;2.03;;
1446;SDS011;717;51.522;7.266;2022-07-29T09:11:11;3.95;;;2.28;;
1446;SDS011;717;51.522;7.266;2022-07-29T09:13:39;4.70;;;2.03;;
1446;SDS011;717;51.522;7.266;2022-07-29T09:16:06;8.18;;;2.15;;
1446;SDS011;717;51.522;7.266;2022-07-29T09:18:35;2.72;;;2.00;;
1446;SDS011;717;51.522;7.266;2022-07-29T09:21:03;4.55;;;2.00;;
1446;SDS011;717;51.522;7.266;2022-07-29T09:24:01;5.13;;;2.40;;
1446;SDS011;717;51.522;7.266;2022-07-29T09:26:30;3.17;;;2.17;;
1446;SDS011;717;51.522;7.266;2022-07-29T09:28:58;3.72;;;2.60;;
1446;SDS011;717;51.522;7.266;2022-07-29T09:31:28;5.47;;;2.75;;
1446;SDS011;717;51.522;7.266;2022-07-29T09:34:01;5.03;;;2.22;;
1446;SDS011;717;51.522;7.266;2022-07-29T09:36:28;5.05;;;2.65;;
1446;SDS011;717;51.522;7.266;2022-07-29T09:38:58;2.97;;;2.60;;
1446;SDS011;717;51.522;7.266;2022-07-29T09:41:26;5.32;;;2.90;;
1446;SDS011;717;51.522;7.266;2022-07-29T09:43:54;3.60;;;2.70;;
1446;SDS011;717;51.522;7.266;2022-07-29T09:46:22;3.75;;;2.75;;
1446;SDS011;717;51.522;7.266;2022-07-29T09:51:34;6.63;;;2.72;;
1446;SDS011;717;51.522;7.266;2022-07-29T09:54:01;3.95;;;2.53;;
1446;SDS011;717;51.522;7.266;2022-07-29T09:56:38;4.60;;;2.55;;
1446;SDS011;717;51.522;7.266;2022-07-29T09:59:06;8.30;;;2.58;;
1446;SDS011;717;51.522;7.266;2022-07-29T10:01:33;8.63;;;2.53;;
1446;SDS011;717;51.522;7.266;2022-07-29T10:04:01;2.60;;;2.40;;
1446;SDS011;717;51.522;7.266;2022-07-29T10:06:29;8.18;;;2.70;;
1446;SDS011;717;51.522;7.266;2022-07-29T10:09:06;4.45;;;2.25;;
1446;SDS011;717;51.522;7.266;2022-07-29T10:11:34;5.53;;;2.30;;
1446;SDS011;717;51.522;7.266;2022-07-29T10:14:02;5.53;;;2.33;;
1446;SDS011;717;51.522;7.266;2022-07-29T10:16:30;3.80;;;2.22;;
1446;SDS011;717;51.522;7.266;2022-07-29T10:18:58;3.85;;;2.53;;
1446;SDS011;717;51.522;7.266;2022-07-29T10:21:26;5.25;;;2.50;;
1446;SDS011;717;51.522;7.266;2022-07-29T10:23:55;4.50;;;2.75;;
1446;SDS011;717;51.522;7.266;2022-07-29T10:26:24;4.30;;;2.70;;
1446;SDS011;717;51.522;7.266;2022-07-29T10:28:52;7.93;;;2.80;;
1446;SDS011;717;51.522;7.266;2022-07-29T10:31:22;3.42;;;2.30;;
1446;SDS011;717;51.522;7.266;2022-07-29T10:33:57;5.25;;;2.55;;
1446;SDS011;717;51.522;7.266;2022-07-29T10:36:38;3.00;;;2.28;;
1446;SDS011;717;51.522;7.266;2022-07-29T10:39:17;4.78;;;2.50;;
1446;SDS011;717;51.522;7.266;2022-07-29T10:41:59;6.20;;;2.80;;
1446;SDS011;717;51.522;7.266;2022-07-29T10:44:34;2.78;;;2.40;;
1446;SDS011;717;51.522;7.266;2022-07-29T10:47:05;7.18;;;2.50;;
1446;SDS011;717;51.522;7.266;2022-07-29T10:49:32;4.82;;;2.70;;
1446;SDS011;717;51.522;7.266;2022-07-29T10:52:00;4.55;;;2.50;;
1446;SDS011;717;51.522;7.266;2022-07-29T10:54:43;3.63;;;2.65;;
1446;SDS011;717;51.522;7.266;2022-07-29T10:57:22;5.45;;;2.80;;
1446;SDS011;717;51.522;7.266;2022-07-29T11:02:53;3.35;;;2.10;;
1446;SDS011;717;51.522;7.266;2022-07-29T11:05:23;5.55;;;2.05;;
1446;SDS011;717;51.522;7.266;2022-07-29T11:10:52;4.35;;;2.33;;
1446;SDS011;717;51.522;7.266;2022-07-29T11:13:50;2.95;;;1.98;;
1446;SDS011;717;51.522;7.266;2022-07-29T11:16:18;6.18;;;2.10;;
1446;SDS011;717;51.522;7.266;2022-07-29T11:21:46;3.45;;;1.90;;
1446;SDS011;717;51.522;7.266;2022-07-29T11:24:15;4.07;;;2.15;;
1446;SDS011;717;51.522;7.266;2022-07-29T11:26:45;3.78;;;2.42;;
1446;SDS011;717;51.522;7.266;2022-07-29T11:29:31;4.78;;;2.10;;
1446;SDS011;717;51.522;7.266;2022-07-29T11:32:08;4.90;;;2.17;;
1446;SDS011;717;51.522;7.266;2022-07-29T11:34:36;3.85;;;2.03;;
1446;SDS011;717;51.522;7.266;2022-07-29T11:37:16;5.57;;;2.33;;
1446;SDS011;717;51.522;7.266;2022-07-29T11:39:44;4.43;;;2.70;;
1446;SDS011;717;51.522;7.266;2022-07-29T11:45:07;3.45;;;2.70;;
1446;SDS011;717;51.522;7.266;2022-07-29T11:47:37;4.10;;;2.47;;
1446;SDS011;717;51.522;7.266;2022-07-29T11:50:06;2.85;;;2.40;;
1446;SDS011;717;51.522;7.266;2022-07-29T11:52:35;2.70;;;2.28;;
1446;SDS011;717;51.522;7.266;2022-07-29T11:55:08;4.00;;;2.42;;
1446;SDS011;717;51.522;7.266;2022-07-29T11:57:37;4.60;;;2.80;;
1446;SDS011;717;51.522;7.266;2022-07-29T12:00:16;3.90;;;2.83;;
1446;SDS011;717;51.522;7.266;2022-07-29T12:02:48;8.15;;;2.85;;
1446;SDS011;717;51.522;7.266;2022-07-29T12:05:16;3.60;;;2.80;;
1446;SDS011;717;51.522;7.266;2022-07-29T12:07:44;4.22;;;2.95;;
1446;SDS011;717;51.522;7.266;2022-07-29T12:10:11;4.93;;;2.75;;
1446;SDS011;717;51.522;7.266;2022-07-29T12:12:38;3.88;;;2.63;;
1446;SDS011;717;51.522;7.266;2022-07-29T12:15:13;3.25;;;2.95;;
1446;SDS011;717;51.522;7.266;2022-07-29T12:17:42;4.32;;;2.80;;
1446;SDS011;717;51.522;7.266;2022-07-29T12:20:09;3.30;;;3.00;;
1446;SDS011;717;51.522;7.266;2022-07-29T12:22:38;6.13;;;2.35;;
1446;SDS011;717;51.522;7.266;2022-07-29T12:25:09;4.95;;;3.10;;
1446;SDS011;717;51.522;7.266;2022-07-29T12:27:40;5.57;;;2.53;;
1446;SDS011;717;51.522;7.266;2022-07-29T12:30:09;5.07;;;2.67;;
1446;SDS011;717;51.522;7.266;2022-07-29T12:32:39;4.68;;;2.75;;
1446;SDS011;717;51.522;7.266;2022-07-29T12:35:08;2.78;;;2.55;;
1446;SDS011;717;51.522;7.266;2022-07-29T12:37:39;4.22;;;2.70;;
1446;SDS011;717;51.522;7.266;2022-07-29T12:40:08;4.28;;;2.70;;
1446;SDS011;717;51.522;7.266;2022-07-29T12:42:37;5.95;;;2.47;;
1446;SDS011;717;51.522;7.266;2022-07-29T12:45:06;4.15;;;2.28;;
1446;SDS011;717;51.522;7.266;2022-07-29T12:47:37;4.95;;;2.90;;
1446;SDS011;717;51.522;7.266;2022-07-29T12:50:19;4.50;;;2.60;;
1446;SDS011;717;51.522;7.266;2022-07-29T12:52:46;4.28;;;2.42;;
1446;SDS011;717;51.522;7.266;2022-07-29T12:55:13;4.47;;;2.30;;
1446;SDS011;717;51.522;7.266;2022-07-29T12:57:46;4.30;;;2.35;;
1446;SDS011;717;51.522;7.266;2022-07-29T13:00:15;3.55;;;2.30;;
1446;SDS011;717;51.522;7.266;2022-07-29T13:02:56;3.35;;;2.40;;
1446;SDS011;717;51.522;7.266;2022-07-29T13:05:23;7.32;;;2.75;;
1446;SDS011;717;51.522;7.266;2022-07-29T13:08:09;4.22;;;2.20;;
1446;SDS011;717;51.522;7.266;2022-07-29T13:10:37;4.18;;;2.40;;
1446;SDS011;717;51.522;7.266;2022-07-29T13:13:04;4.85;;;2.50;;
1446;SDS011;717;51.522;7.266;2022-07-29T13:15:33;3.72;;;2.20;;
1446;SDS011;717;51.522;7.266;2022-07-29T13:18:01;3.17;;;1.67;;
1446;SDS011;717;51.522;7.266;2022-07-29T13:20:29;3.67;;;1.75;;
1446;SDS011;717;51.522;7.266;2022-07-29T13:22:56;3.63;;;2.03;;
1446;SDS011;717;51.522;7.266;2022-07-29T13:25:24;5.93;;;2.25;;
1446;SDS011;717;51.522;7.266;2022-07-29T13:27:52;4.65;;;2.00;;
1446;SDS011;717;51.522;7.266;2022-07-29T13:30:20;4.20;;;2.05;;
1446;SDS011;717;51.522;7.266;2022-07-29T13:32:48;3.38;;;1.77;;
1446;SDS011;717;51.522;7.266;2022-07-29T13:35:16;5.45;;;1.75;;
1446;SDS011;717;51.522;7.266;2022-07-29T13:37:44;5.60;;;2.58;;
1446;SDS011;717;51.522;7.266;2022-07-29T13:40:11;3.50;;;2.08;;
1446;SDS011;717;51.522;7.266;2022-07-29T13:42:39;3.50;;;1.83;;
1446;SDS011;717;51.522;7.266;2022-07-29T13:45:07;2.90;;;1.80;;
1446;SDS011;717;51.522;7.266;2022-07-29T13:47:35;3.80;;;1.85;;
1446;SDS011;717;51.522;7.266;2022-07-29T13:50:03;6.07;;;2.20;;
1446;SDS011;717;51.522;7.266;2022-07-29T13:52:33;4.47;;;2.13;;
1446;SDS011;717;51.522;7.266;2022-07-29T13:55:00;4.00;;;2.38;;
1446;SDS011;717;51.522;7.266;2022-07-29T13:57:28;4.72;;;1.92;;
1446;SDS011;717;51.522;7.266;2022-07-29T13:59:55;4.22;;;1.98;;
1446;SDS011;717;51.522;7.266;2022-07-29T14:02:22;5.60;;;2.25;;
1446;SDS011;717;51.522;7.266;2022-07-29T14:04:50;6.90;;;2.47;;
1446;SDS011;717;51.522;7.266;2022-07-29T14:07:17;2.70;;;1.77;;
1446;SDS011;717;51.522;7.266;2022-07-29T14:09:45;6.57;;;2.60;;
1446;SDS011;717;51.522;7.266;2022-07-29T14:12:12;4.40;;;1.92;;
1446;SDS011;717;51.522;7.266;2022-07-29T14:14:39;3.25;;;2.00;;
1446;SDS011;717;51.522;7.266;2022-07-29T14:17:06;2.40;;;1.70;;
1446;SDS011;717;51.522;7.266;2022-07-29T14:19:33;3.17;;;1.80;;
1446;SDS011;717;51.522;7.266;2022-07-29T14:22:02;5.25;;;1.92;;
1446;SDS011;717;51.522;7.266;2022-07-29T14:24:30;6.05;;;1.77;;
1446;SDS011;717;51.522;7.266;2022-07-29T14:26:59;2.33;;;1.70;;
1446;SDS011;717;51.522;7.266;2022-07-29T14:29:26;3.42;;;1.50;;
1446;SDS011;717;51.522;7.266;2022-07-29T14:31:53;3.83;;;1.88;;
1446;SDS011;717;51.522;7.266;2022-07-29T14:34:20;4.22;;;1.67;;
1446;SDS011;717;51.522;7.266;2022-07-29T14:36:47;3.05;;;1.77;;
1446;SDS011;717;51.522;7.266;2022-07-29T14:39:14;2.30;;;1.48;;
1446;SDS011;717;51.522;7.266;2022-07-29T14:41:41;5.78;;;1.90;;
1446;SDS011;717;51.522;7.266;2022-07-29T14:44:10;2.55;;;1.77;;
1446;SDS011;717;51.522;7.266;2022-07-29T14:46:36;3.05;;;2.05;;
1446;SDS011;717;51.522;7.266;2022-07-29T14:49:03;4.05;;;2.40;;
1446;SDS011;717;51.522;7.266;2022-07-29T14:51:31;4.60;;;2.30;;
1446;SDS011;717;51.522;7.266;2022-07-29T14:53:58;3.60;;;1.90;;
1446;SDS011;717;51.522;7.266;2022-07-29T14:56:25;3.33;;;1.83;;
1446;SDS011;717;51.522;7.266;2022-07-29T14:58:54;5.35;;;1.63;;
1446;SDS011;717;51.522;7.266;2022-07-29T15:01:25;5.68;;;1.98;;
1446;SDS011;717;51.522;7.266;2022-07-29T15:03:52;4.97;;;1.65;;
1446;SDS011;717;51.522;7.266;2022-07-29T15:06:19;4.00;;;1.58;;
1446;SDS011;717;51.522;7.266;2022-07-29T15:08:46;4.70;;;2.13;;
1446;SDS011;717;51.522;7.266;2022-07-29T15:11:13;5.03;;;2.08;;
1446;SDS011;717;51.522;7.266;2022-07-29T15:13:39;2.72;;;1.52;;
1446;SDS011;717;51.522;7.266;2022-07-29T15:16:06;3.33;;;1.60;;
1446;SDS011;717;51.522;7.266;2022-07-29T15:18:35;2.70;;;1.52;;
1446;SDS011;717;51.522;7.266;2022-07-29T15:21:03;3.83;;;1.80;;
1446;SDS011;717;51.522;7.266;2022-07-29T15:23:31;4.40;;;1.95;;
1446;SDS011;717;51.522;7.266;2022-07-29T15:26:00;4.40;;;1.95;;
1446;SDS011;717;51.522;7.266;2022-07-29T15:28:27;4.13;;;1.83;;
1446;SDS011;717;51.522;7.266;2022-07-29T15:30:53;4.60;;;1.63;;
1446;SDS011;717;51.522;7.266;2022-07-29T15:33:20;6.05;;;1.80;;
1446;SDS011;717;51.522;7.266;2022-07-29T15:35:49;3.60;;;1.60;;
1446;SDS011;717;51.522;7.266;2022-07-29T15:38:16;5.03;;;1.38;;
1446;SDS011;717;51.522;7.266;2022-07-29T15:40:43;4.53;;;1.40;;
1446;SDS011;717;51.522;7.266;2022-07-29T15:43:11;3.67;;;1.80;;
1446;SDS011;717;51.522;7.266;2022-07-29T15:45:38;3.22;;;1.60;;
1446;SDS011;717;51.522;7.266;2022-07-29T15:48:07;5.00;;;2.10;;
1446;SDS011;717;51.522;7.266;2022-07-29T15:50:34;2.22;;;1.70;;
1446;SDS011;717;51.522;7.266;2022-07-29T15:53:02;2.88;;;1.70;;
1446;SDS011;717;51.522;7.266;2022-07-29T15:55:29;5.15;;;2.10;;
1446;SDS011;717;51.522;7.266;2022-07-29T15:57:56;3.65;;;1.95;;